sensor_id;sensor_type;location;lat;lon;timestamp;P1;durP1;ratioP1;P2;durP2;ratioP2
21843;SDS011;11084;52.482;9.108;2022-09-24T00:01:28;7.10;;;3.47;;
21843;SDS011;11084;52.482;9.108;2022-09-24T00:04:00;4.30;;;3.00;;
21843;SDS011;11084;52.482;9.108;2022-09-24T00:06:32;5.47;;;2.73;;
21843;SDS011;11084;52.482;9.108;2022-09-24T00:09:04;8.53;;;3.07;;
21843;SDS011;11084;52.482;9.108;2022-09-24T00:11:31;6.97;;;3.37;;
21843;SDS011;11084;52.482;9.108;2022-09-24T00:13:59;10.17;;;3.30;;
21843;SDS011;11084;52.482;9.108;2022-09-24T00:16:26;5.40;;;3.33;;
21843;SDS011;11084;52.482;9.108;2022-09-24T00:18:56;4.87;;;3.50;;
21843;SDS011;11084;52.482;9.108;2022-09-24T00:21:25;8.40;;;4.30;;
21843;SDS011;11084;52.482;9.108;2022-09-24T00:24:03;10.30;;;4.10;;
21843;SDS011;11084;52.482;9.108;2022-09-24T00:26:34;6.67;;;3.87;;
21843;SDS011;11084;52.482;9.108;2022-09-24T00:29:17;4.90;;;3.80;;
21843;SDS011;11084;52.482;9.108;2022-09-24T00:31:48;4.70;;;3.33;;
21843;SDS011;11084;52.482;9.108;2022-09-24T00:34:16;6.87;;;3.57;;
21843;SDS011;11084;52.482;9.108;2022-09-24T00:36:43;7.20;;;3.20;;
21843;SDS011;11084;52.482;9.108;2022-09-24T00:39:11;12.37;;;4.17;;
21843;SDS011;11084;52.482;9.108;2022-09-24T00:41:38;8.27;;;4.00;;
21843;SDS011;11084;52.482;9.108;2022-09-24T00:44:52;7.70;;;4.10;;
21843;SDS011;11084;52.482;9.108;2022-09-24T00:50:01;7.63;;;4.87;;
21843;SDS011;11084;52.482;9.108;2022-09-24T00:52:44;7.03;;;4.20;;
21843;SDS011;11084;52.482;9.108;2022-09-24T00:55:16;7.73;;;4.70;;
21843;SDS011;11084;52.482;9.108;2022-09-24T00:57:44;8.10;;;4.97;;
21843;SDS011;11084;52.482;9.108;2022-09-24T01:00:13;8.27;;;4.90;;
21843;SDS011;11084;52.482;9.108;2022-09-24T01:02:41;10.03;;;5.57;;
21843;SDS011;11084;52.482;9.108;2022-09-24T01:05:11;8.67;;;5.27;;
21843;SDS011;11084;52.482;9.108;2022-09-24T01:07:37;9.10;;;4.60;;
21843;SDS011;11084;52.482;9.108;2022-09-24T01:10:04;8.43;;;5.00;;
21843;SDS011;11084;52.482;9.108;2022-09-24T01:21:15;5.47;;;4.57;;
21843;SDS011;11084;52.482;9.108;2022-09-24T01:30:16;9.83;;;5.67;;
21843;SDS011;11084;52.482;9.108;2022-09-24T01:35:33;8.57;;;5.33;;
21843;SDS011;11084;52.482;9.108;2022-09-24T01:38:25;8.10;;;5.27;;
21843;SDS011;11084;52.482;9.108;2022-09-24T01:40:56;8.63;;;5.53;;
21843;SDS011;11084;52.482;9.108;2022-09-24T01:43:26;13.53;;;5.40;;
21843;SDS011;11084;52.482;9.108;2022-09-24T01:45:53;9.50;;;5.50;;
21843;SDS011;11084;52.482;9.108;2022-09-24T01:48:23;8.93;;;5.90;;
21843;SDS011;11084;52.482;9.108;2022-09-24T01:51:01;11.50;;;5.93;;
21843;SDS011;11084;52.482;9.108;2022-09-24T01:53:46;9.70;;;5.73;;
21843;SDS011;11084;52.482;9.108;2022-09-24T01:56:33;8.23;;;6.10;;
21843;SDS011;11084;52.482;9.108;2022-09-24T01:59:09;11.93;;;6.83;;
21843;SDS011;11084;52.482;9.108;2022-09-24T02:02:06;9.80;;;6.33;;
21843;SDS011;11084;52.482;9.108;2022-09-24T02:04:52;8.43;;;6.03;;
21843;SDS011;11084;52.482;9.108;2022-09-24T02:07:26;13.67;;;6.77;;
21843;SDS011;11084;52.482;9.108;2022-09-24T02:10:05;10.90;;;6.30;;
21843;SDS011;11084;52.482;9.108;2022-09-24T02:12:44;10.53;;;6.40;;
21843;SDS011;11084;52.482;9.108;2022-09-24T02:15:16;11.17;;;5.80;;
21843;SDS011;11084;52.482;9.108;2022-09-24T02:17:52;8.70;;;6.03;;
21843;SDS011;11084;52.482;9.108;2022-09-24T02:20:22;12.33;;;6.30;;
21843;SDS011;11084;52.482;9.108;2022-09-24T02:22:50;17.73;;;6.30;;
21843;SDS011;11084;52.482;9.108;2022-09-24T02:25:22;11.77;;;5.80;;
21843;SDS011;11084;52.482;9.108;2022-09-24T02:27:55;13.67;;;5.90;;
21843;SDS011;11084;52.482;9.108;2022-09-24T02:30:21;11.83;;;5.87;;
21843;SDS011;11084;52.482;9.108;2022-09-24T02:32:47;7.43;;;5.37;;
21843;SDS011;11084;52.482;9.108;2022-09-24T02:35:15;12.37;;;6.23;;
21843;SDS011;11084;52.482;9.108;2022-09-24T02:37:42;10.03;;;5.63;;
21843;SDS011;11084;52.482;9.108;2022-09-24T02:40:10;9.03;;;5.90;;
21843;SDS011;11084;52.482;9.108;2022-09-24T02:42:38;9.90;;;6.30;;
21843;SDS011;11084;52.482;9.108;2022-09-24T02:45:06;10.73;;;5.47;;
21843;SDS011;11084;52.482;9.108;2022-09-24T02:47:33;11.37;;;5.90;;
21843;SDS011;11084;52.482;9.108;2022-09-24T02:49:59;11.97;;;5.83;;
21843;SDS011;11084;52.482;9.108;2022-09-24T02:52:25;7.07;;;4.90;;
21843;SDS011;11084;52.482;9.108;2022-09-24T02:54:52;7.83;;;5.40;;
21843;SDS011;11084;52.482;9.108;2022-09-24T02:57:18;9.47;;;5.33;;
21843;SDS011;11084;52.482;9.108;2022-09-24T02:59:44;10.37;;;5.67;;
21843;SDS011;11084;52.482;9.108;2022-09-24T03:02:13;10.40;;;6.33;;
21843;SDS011;11084;52.482;9.108;2022-09-24T03:04:39;9.13;;;5.77;;
21843;SDS011;11084;52.482;9.108;2022-09-24T03:07:05;8.23;;;5.53;;
21843;SDS011;11084;52.482;9.108;2022-09-24T03:09:31;11.67;;;5.60;;
21843;SDS011;11084;52.482;9.108;2022-09-24T03:11:57;8.03;;;5.67;;
21843;SDS011;11084;52.482;9.108;2022-09-24T03:14:24;18.00;;;6.87;;
21843;SDS011;11084;52.482;9.108;2022-09-24T03:16:51;13.13;;;6.83;;
21843;SDS011;11084;52.482;9.108;2022-09-24T03:19:17;8.17;;;5.83;;
21843;SDS011;11084;52.482;9.108;2022-09-24T03:21:45;10.93;;;6.07;;
21843;SDS011;11084;52.482;9.108;2022-09-24T03:24:11;11.80;;;6.90;;
21843;SDS011;11084;52.482;9.108;2022-09-24T03:26:37;9.70;;;6.37;;
21843;SDS011;11084;52.482;9.108;2022-09-24T03:29:03;14.93;;;7.07;;
21843;SDS011;11084;52.482;9.108;2022-09-24T03:31:31;10.67;;;6.70;;
21843;SDS011;11084;52.482;9.108;2022-09-24T03:33:57;12.30;;;6.40;;
21843;SDS011;11084;52.482;9.108;2022-09-24T03:36:24;13.17;;;6.90;;
21843;SDS011;11084;52.482;9.108;2022-09-24T03:38:51;15.97;;;7.10;;
21843;SDS011;11084;52.482;9.108;2022-09-24T03:41:20;10.77;;;7.07;;
21843;SDS011;11084;52.482;9.108;2022-09-24T03:43:47;12.97;;;7.47;;
21843;SDS011;11084;52.482;9.108;2022-09-24T03:46:13;10.30;;;6.30;;
21843;SDS011;11084;52.482;9.108;2022-09-24T03:48:41;13.97;;;7.00;;
21843;SDS011;11084;52.482;9.108;2022-09-24T03:51:11;11.90;;;7.17;;
21843;SDS011;11084;52.482;9.108;2022-09-24T03:53:40;12.17;;;7.60;;
21843;SDS011;11084;52.482;9.108;2022-09-24T03:56:06;12.93;;;6.80;;
21843;SDS011;11084;52.482;9.108;2022-09-24T03:58:34;14.97;;;7.27;;
21843;SDS011;11084;52.482;9.108;2022-09-24T04:01:02;13.67;;;7.33;;
21843;SDS011;11084;52.482;9.108;2022-09-24T04:03:29;12.67;;;7.53;;
21843;SDS011;11084;52.482;9.108;2022-09-24T04:05:58;14.17;;;7.93;;
21843;SDS011;11084;52.482;9.108;2022-09-24T04:08:24;15.07;;;8.23;;
21843;SDS011;11084;52.482;9.108;2022-09-24T04:10:50;15.90;;;9.33;;
21843;SDS011;11084;52.482;9.108;2022-09-24T04:13:17;14.73;;;8.87;;
21843;SDS011;11084;52.482;9.108;2022-09-24T04:15:43;12.40;;;9.20;;
21843;SDS011;11084;52.482;9.108;2022-09-24T04:18:09;12.53;;;9.13;;
21843;SDS011;11084;52.482;9.108;2022-09-24T04:20:36;22.07;;;9.13;;
21843;SDS011;11084;52.482;9.108;2022-09-24T04:23:02;24.70;;;9.73;;
21843;SDS011;11084;52.482;9.108;2022-09-24T04:25:29;13.60;;;8.83;;
21843;SDS011;11084;52.482;9.108;2022-09-24T04:27:57;14.83;;;8.47;;
21843;SDS011;11084;52.482;9.108;2022-09-24T04:30:30;13.20;;;8.57;;
21843;SDS011;11084;52.482;9.108;2022-09-24T04:32:58;11.57;;;8.07;;
21843;SDS011;11084;52.482;9.108;2022-09-24T04:35:25;14.97;;;8.70;;
21843;SDS011;11084;52.482;9.108;2022-09-24T04:37:54;11.83;;;8.10;;
21843;SDS011;11084;52.482;9.108;2022-09-24T04:40:20;17.03;;;8.10;;
21843;SDS011;11084;52.482;9.108;2022-09-24T04:42:47;11.07;;;7.57;;
21843;SDS011;11084;52.482;9.108;2022-09-24T04:45:13;11.27;;;8.07;;
21843;SDS011;11084;52.482;9.108;2022-09-24T04:47:47;14.47;;;8.33;;
21843;SDS011;11084;52.482;9.108;2022-09-24T04:50:16;13.33;;;8.13;;
21843;SDS011;11084;52.482;9.108;2022-09-24T04:52:43;15.57;;;7.97;;
21843;SDS011;11084;52.482;9.108;2022-09-24T04:55:09;15.17;;;8.07;;
21843;SDS011;11084;52.482;9.108;2022-09-24T04:57:34;12.07;;;8.33;;
21843;SDS011;11084;52.482;9.108;2022-09-24T05:00:02;12.37;;;8.40;;
21843;SDS011;11084;52.482;9.108;2022-09-24T05:02:31;13.30;;;8.30;;
21843;SDS011;11084;52.482;9.108;2022-09-24T05:04:57;12.40;;;7.47;;
21843;SDS011;11084;52.482;9.108;2022-09-24T05:07:23;11.90;;;8.80;;
21843;SDS011;11084;52.482;9.108;2022-09-24T05:09:49;12.47;;;8.67;;
21843;SDS011;11084;52.482;9.108;2022-09-24T05:12:15;12.97;;;8.57;;
21843;SDS011;11084;52.482;9.108;2022-09-24T05:14:43;17.57;;;9.40;;
21843;SDS011;11084;52.482;9.108;2022-09-24T05:17:08;12.20;;;8.27;;
21843;SDS011;11084;52.482;9.108;2022-09-24T05:19:34;13.73;;;8.77;;
21843;SDS011;11084;52.482;9.108;2022-09-24T05:22:00;13.43;;;9.07;;
21843;SDS011;11084;52.482;9.108;2022-09-24T05:24:26;12.33;;;8.50;;
21843;SDS011;11084;52.482;9.108;2022-09-24T05:26:52;15.87;;;8.67;;
21843;SDS011;11084;52.482;9.108;2022-09-24T05:29:34;13.90;;;8.73;;
21843;SDS011;11084;52.482;9.108;2022-09-24T05:32:09;11.50;;;8.27;;
21843;SDS011;11084;52.482;9.108;2022-09-24T05:34:37;15.97;;;9.00;;
21843;SDS011;11084;52.482;9.108;2022-09-24T05:37:05;12.23;;;8.40;;
21843;SDS011;11084;52.482;9.108;2022-09-24T05:39:32;14.87;;;8.33;;
21843;SDS011;11084;52.482;9.108;2022-09-24T05:41:58;12.57;;;8.80;;
21843;SDS011;11084;52.482;9.108;2022-09-24T05:44:24;11.67;;;8.27;;
21843;SDS011;11084;52.482;9.108;2022-09-24T05:46:50;13.00;;;8.40;;
21843;SDS011;11084;52.482;9.108;2022-09-24T05:49:17;15.10;;;8.33;;
21843;SDS011;11084;52.482;9.108;2022-09-24T05:51:43;12.47;;;8.37;;
21843;SDS011;11084;52.482;9.108;2022-09-24T05:54:12;12.67;;;8.50;;
21843;SDS011;11084;52.482;9.108;2022-09-24T05:56:37;12.03;;;7.80;;
21843;SDS011;11084;52.482;9.108;2022-09-24T05:59:04;16.67;;;8.73;;
21843;SDS011;11084;52.482;9.108;2022-09-24T06:01:30;13.77;;;8.57;;
21843;SDS011;11084;52.482;9.108;2022-09-24T06:03:56;14.00;;;8.93;;
21843;SDS011;11084;52.482;9.108;2022-09-24T06:06:23;15.73;;;9.13;;
21843;SDS011;11084;52.482;9.108;2022-09-24T06:08:50;16.80;;;8.67;;
21843;SDS011;11084;52.482;9.108;2022-09-24T06:11:16;14.23;;;8.77;;
21843;SDS011;11084;52.482;9.108;2022-09-24T06:13:43;17.50;;;9.40;;
21843;SDS011;11084;52.482;9.108;2022-09-24T06:16:09;13.17;;;8.90;;
21843;SDS011;11084;52.482;9.108;2022-09-24T06:18:37;25.43;;;11.03;;
21843;SDS011;11084;52.482;9.108;2022-09-24T06:21:09;20.50;;;9.90;;
21843;SDS011;11084;52.482;9.108;2022-09-24T06:23:38;16.77;;;10.33;;
21843;SDS011;11084;52.482;9.108;2022-09-24T06:26:05;18.87;;;11.27;;
21843;SDS011;11084;52.482;9.108;2022-09-24T06:28:33;21.40;;;11.53;;
21843;SDS011;11084;52.482;9.108;2022-09-24T06:30:59;21.20;;;12.50;;
21843;SDS011;11084;52.482;9.108;2022-09-24T06:33:25;19.37;;;12.07;;
21843;SDS011;11084;52.482;9.108;2022-09-24T06:35:52;20.80;;;11.77;;
21843;SDS011;11084;52.482;9.108;2022-09-24T06:38:18;19.43;;;10.57;;
21843;SDS011;11084;52.482;9.108;2022-09-24T06:40:45;15.83;;;10.33;;
21843;SDS011;11084;52.482;9.108;2022-09-24T06:43:14;18.33;;;10.47;;
21843;SDS011;11084;52.482;9.108;2022-09-24T06:45:42;15.07;;;9.30;;
21843;SDS011;11084;52.482;9.108;2022-09-24T06:48:12;12.87;;;9.00;;
21843;SDS011;11084;52.482;9.108;2022-09-24T06:50:43;12.90;;;8.97;;
21843;SDS011;11084;52.482;9.108;2022-09-24T06:53:10;15.00;;;9.00;;
21843;SDS011;11084;52.482;9.108;2022-09-24T06:55:37;15.27;;;9.67;;
21843;SDS011;11084;52.482;9.108;2022-09-24T06:58:07;17.07;;;8.70;;
21843;SDS011;11084;52.482;9.108;2022-09-24T07:00:36;18.40;;;8.87;;
21843;SDS011;11084;52.482;9.108;2022-09-24T07:03:03;17.23;;;9.47;;
21843;SDS011;11084;52.482;9.108;2022-09-24T07:05:31;17.27;;;8.83;;
21843;SDS011;11084;52.482;9.108;2022-09-24T07:07:58;13.43;;;8.93;;
21843;SDS011;11084;52.482;9.108;2022-09-24T07:10:24;13.87;;;9.50;;
21843;SDS011;11084;52.482;9.108;2022-09-24T07:12:52;14.37;;;9.17;;
21843;SDS011;11084;52.482;9.108;2022-09-24T07:15:18;14.23;;;9.13;;
21843;SDS011;11084;52.482;9.108;2022-09-24T07:17:44;14.63;;;9.30;;
21843;SDS011;11084;52.482;9.108;2022-09-24T07:20:10;17.93;;;9.50;;
21843;SDS011;11084;52.482;9.108;2022-09-24T07:22:36;16.97;;;9.97;;
21843;SDS011;11084;52.482;9.108;2022-09-24T07:25:13;16.17;;;9.60;;
21843;SDS011;11084;52.482;9.108;2022-09-24T07:27:39;19.70;;;10.07;;
21843;SDS011;11084;52.482;9.108;2022-09-24T07:30:05;13.23;;;9.60;;
21843;SDS011;11084;52.482;9.108;2022-09-24T07:32:34;22.77;;;10.93;;
21843;SDS011;11084;52.482;9.108;2022-09-24T07:35:02;16.53;;;10.60;;
21843;SDS011;11084;52.482;9.108;2022-09-24T07:37:28;22.13;;;11.10;;
21843;SDS011;11084;52.482;9.108;2022-09-24T07:39:56;19.00;;;10.60;;
21843;SDS011;11084;52.482;9.108;2022-09-24T07:42:23;17.23;;;10.40;;
21843;SDS011;11084;52.482;9.108;2022-09-24T07:44:50;21.43;;;10.10;;
21843;SDS011;11084;52.482;9.108;2022-09-24T07:47:16;20.40;;;11.33;;
21843;SDS011;11084;52.482;9.108;2022-09-24T07:49:42;16.67;;;10.33;;
21843;SDS011;11084;52.482;9.108;2022-09-24T07:52:09;18.47;;;10.53;;
21843;SDS011;11084;52.482;9.108;2022-09-24T07:54:35;18.50;;;10.77;;
21843;SDS011;11084;52.482;9.108;2022-09-24T07:57:02;20.87;;;11.67;;
21843;SDS011;11084;52.482;9.108;2022-09-24T07:59:34;17.63;;;10.33;;
21843;SDS011;11084;52.482;9.108;2022-09-24T08:02:00;16.87;;;11.27;;
21843;SDS011;11084;52.482;9.108;2022-09-24T08:04:26;20.83;;;11.93;;
21843;SDS011;11084;52.482;9.108;2022-09-24T08:06:52;19.47;;;12.37;;
21843;SDS011;11084;52.482;9.108;2022-09-24T08:09:18;22.00;;;11.83;;
21843;SDS011;11084;52.482;9.108;2022-09-24T08:11:44;25.07;;;10.97;;
21843;SDS011;11084;52.482;9.108;2022-09-24T08:14:10;24.10;;;12.00;;
21843;SDS011;11084;52.482;9.108;2022-09-24T08:16:36;24.17;;;11.83;;
21843;SDS011;11084;52.482;9.108;2022-09-24T08:19:04;19.07;;;11.27;;
21843;SDS011;11084;52.482;9.108;2022-09-24T08:21:39;19.80;;;11.20;;
21843;SDS011;11084;52.482;9.108;2022-09-24T08:24:05;24.40;;;11.23;;
21843;SDS011;11084;52.482;9.108;2022-09-24T08:26:31;25.20;;;11.87;;
21843;SDS011;11084;52.482;9.108;2022-09-24T08:28:57;26.13;;;11.43;;
21843;SDS011;11084;52.482;9.108;2022-09-24T08:31:23;21.90;;;11.37;;
21843;SDS011;11084;52.482;9.108;2022-09-24T08:33:50;19.70;;;12.03;;
21843;SDS011;11084;52.482;9.108;2022-09-24T08:36:16;20.57;;;11.47;;
21843;SDS011;11084;52.482;9.108;2022-09-24T08:38:45;23.77;;;11.00;;
21843;SDS011;11084;52.482;9.108;2022-09-24T08:47:11;23.67;;;12.03;;
21843;SDS011;11084;52.482;9.108;2022-09-24T08:49:58;20.47;;;11.07;;
21843;SDS011;11084;52.482;9.108;2022-09-24T08:55:21;20.47;;;11.40;;
21843;SDS011;11084;52.482;9.108;2022-09-24T09:04:23;18.97;;;10.17;;
21843;SDS011;11084;52.482;9.108;2022-09-24T09:07:05;20.30;;;10.50;;
21843;SDS011;11084;52.482;9.108;2022-09-24T09:12:59;19.43;;;10.47;;
21843;SDS011;11084;52.482;9.108;2022-09-24T09:15:19;15.40;;;9.63;;
21843;SDS011;11084;52.482;9.108;2022-09-24T09:17:55;16.73;;;10.13;;
21843;SDS011;11084;52.482;9.108;2022-09-24T09:20:30;25.37;;;10.47;;
21843;SDS011;11084;52.482;9.108;2022-09-24T09:23:20;19.50;;;10.43;;
21843;SDS011;11084;52.482;9.108;2022-09-24T09:25:53;22.40;;;10.33;;
21843;SDS011;11084;52.482;9.108;2022-09-24T09:28:23;18.57;;;10.73;;
21843;SDS011;11084;52.482;9.108;2022-09-24T09:33:42;19.13;;;10.20;;
21843;SDS011;11084;52.482;9.108;2022-09-24T09:42:47;14.17;;;9.37;;
21843;SDS011;11084;52.482;9.108;2022-09-24T09:45:23;15.83;;;9.27;;
21843;SDS011;11084;52.482;9.108;2022-09-24T09:48:04;19.97;;;8.67;;
21843;SDS011;11084;52.482;9.108;2022-09-24T09:50:57;14.33;;;8.90;;
21843;SDS011;11084;52.482;9.108;2022-09-24T09:53:30;17.43;;;8.90;;
21843;SDS011;11084;52.482;9.108;2022-09-24T09:55:57;15.37;;;8.53;;
21843;SDS011;11084;52.482;9.108;2022-09-24T09:58:34;16.87;;;8.43;;
21843;SDS011;11084;52.482;9.108;2022-09-24T10:01:09;16.37;;;8.27;;
21843;SDS011;11084;52.482;9.108;2022-09-24T10:06:34;18.83;;;8.63;;
21843;SDS011;11084;52.482;9.108;2022-09-24T10:09:07;15.10;;;6.97;;
21843;SDS011;11084;52.482;9.108;2022-09-24T10:11:46;14.07;;;7.97;;
21843;SDS011;11084;52.482;9.108;2022-09-24T10:14:13;13.27;;;8.07;;
21843;SDS011;11084;52.482;9.108;2022-09-24T10:16:43;13.20;;;8.33;;
21843;SDS011;11084;52.482;9.108;2022-09-24T10:19:14;15.30;;;8.10;;
21843;SDS011;11084;52.482;9.108;2022-09-24T10:21:45;13.70;;;7.53;;
21843;SDS011;11084;52.482;9.108;2022-09-24T10:24:19;18.67;;;8.87;;
21843;SDS011;11084;52.482;9.108;2022-09-24T10:26:48;20.67;;;8.90;;
21843;SDS011;11084;52.482;9.108;2022-09-24T10:29:21;18.03;;;9.37;;
21843;SDS011;11084;52.482;9.108;2022-09-24T10:32:16;14.23;;;7.87;;
21843;SDS011;11084;52.482;9.108;2022-09-24T10:35:03;13.37;;;8.13;;
21843;SDS011;11084;52.482;9.108;2022-09-24T10:37:51;16.40;;;7.73;;
21843;SDS011;11084;52.482;9.108;2022-09-24T10:40:23;15.23;;;8.03;;
21843;SDS011;11084;52.482;9.108;2022-09-24T10:42:59;13.57;;;8.27;;
21843;SDS011;11084;52.482;9.108;2022-09-24T10:51:24;11.90;;;7.43;;
21843;SDS011;11084;52.482;9.108;2022-09-24T10:54:52;11.43;;;7.27;;
21843;SDS011;11084;52.482;9.108;2022-09-24T11:00:29;14.17;;;7.93;;
21843;SDS011;11084;52.482;9.108;2022-09-24T11:03:34;11.73;;;6.83;;
21843;SDS011;11084;52.482;9.108;2022-09-24T11:10:00;12.23;;;6.60;;
21843;SDS011;11084;52.482;9.108;2022-09-24T11:21:21;15.73;;;8.33;;
21843;SDS011;11084;52.482;9.108;2022-09-24T11:24:48;16.60;;;8.47;;
21843;SDS011;11084;52.482;9.108;2022-09-24T11:30:21;13.00;;;8.00;;
21843;SDS011;11084;52.482;9.108;2022-09-24T11:32:59;14.07;;;8.67;;
21843;SDS011;11084;52.482;9.108;2022-09-24T11:36:29;14.80;;;8.07;;
21843;SDS011;11084;52.482;9.108;2022-09-24T11:39:33;16.83;;;8.53;;
21843;SDS011;11084;52.482;9.108;2022-09-24T11:48:29;18.13;;;9.23;;
21843;SDS011;11084;52.482;9.108;2022-09-24T11:56:37;18.90;;;8.20;;
21843;SDS011;11084;52.482;9.108;2022-09-24T11:59:22;13.47;;;7.63;;
21843;SDS011;11084;52.482;9.108;2022-09-24T12:02:45;12.53;;;7.33;;
21843;SDS011;11084;52.482;9.108;2022-09-24T12:10:42;12.60;;;7.80;;
21843;SDS011;11084;52.482;9.108;2022-09-24T12:13:35;14.37;;;7.73;;
21843;SDS011;11084;52.482;9.108;2022-09-24T12:16:23;16.03;;;8.70;;
21843;SDS011;11084;52.482;9.108;2022-09-24T12:18:57;15.90;;;8.70;;
21843;SDS011;11084;52.482;9.108;2022-09-24T12:21:37;12.70;;;7.33;;
21843;SDS011;11084;52.482;9.108;2022-09-24T12:24:10;13.40;;;7.47;;
21843;SDS011;11084;52.482;9.108;2022-09-24T12:27:00;12.33;;;8.03;;
21843;SDS011;11084;52.482;9.108;2022-09-24T12:29:34;19.70;;;7.90;;
21843;SDS011;11084;52.482;9.108;2022-09-24T12:35:35;14.03;;;7.97;;
21843;SDS011;11084;52.482;9.108;2022-09-24T12:38:22;16.10;;;8.60;;
21843;SDS011;11084;52.482;9.108;2022-09-24T12:46:21;14.47;;;8.77;;
21843;SDS011;11084;52.482;9.108;2022-09-24T12:51:51;14.37;;;7.63;;
21843;SDS011;11084;52.482;9.108;2022-09-24T12:54:29;15.03;;;7.80;;
21843;SDS011;11084;52.482;9.108;2022-09-24T12:57:08;14.13;;;7.50;;
21843;SDS011;11084;52.482;9.108;2022-09-24T12:59:46;12.10;;;7.53;;
21843;SDS011;11084;52.482;9.108;2022-09-24T13:07:29;14.83;;;7.97;;
21843;SDS011;11084;52.482;9.108;2022-09-24T13:10:19;13.27;;;7.93;;
21843;SDS011;11084;52.482;9.108;2022-09-24T13:12:49;16.23;;;7.70;;
21843;SDS011;11084;52.482;9.108;2022-09-24T13:20:35;12.60;;;7.67;;
21843;SDS011;11084;52.482;9.108;2022-09-24T13:23:12;14.43;;;7.63;;
21843;SDS011;11084;52.482;9.108;2022-09-24T13:25:39;18.80;;;8.10;;
21843;SDS011;11084;52.482;9.108;2022-09-24T13:28:18;12.97;;;7.70;;
21843;SDS011;11084;52.482;9.108;2022-09-24T13:31:05;14.50;;;8.00;;
21843;SDS011;11084;52.482;9.108;2022-09-24T13:33:46;29.23;;;13.13;;
21843;SDS011;11084;52.482;9.108;2022-09-24T13:39:15;20.13;;;9.40;;
21843;SDS011;11084;52.482;9.108;2022-09-24T13:41:55;19.70;;;10.83;;
21843;SDS011;11084;52.482;9.108;2022-09-24T13:45:01;16.03;;;9.63;;
21843;SDS011;11084;52.482;9.108;2022-09-24T13:55:44;20.00;;;11.23;;
21843;SDS011;11084;52.482;9.108;2022-09-24T14:01:10;21.53;;;10.87;;
21843;SDS011;11084;52.482;9.108;2022-09-24T14:03:41;19.90;;;11.00;;
21843;SDS011;11084;52.482;9.108;2022-09-24T14:06:18;15.67;;;9.97;;
21843;SDS011;11084;52.482;9.108;2022-09-24T14:08:57;17.30;;;9.77;;
21843;SDS011;11084;52.482;9.108;2022-09-24T14:11:25;18.60;;;10.97;;
21843;SDS011;11084;52.482;9.108;2022-09-24T14:13:51;16.83;;;9.87;;
21843;SDS011;11084;52.482;9.108;2022-09-24T14:16:24;17.43;;;9.40;;
21843;SDS011;11084;52.482;9.108;2022-09-24T14:19:03;15.53;;;8.60;;
21843;SDS011;11084;52.482;9.108;2022-09-24T14:21:37;17.90;;;10.43;;
21843;SDS011;11084;52.482;9.108;2022-09-24T14:24:21;14.97;;;9.47;;
21843;SDS011;11084;52.482;9.108;2022-09-24T14:26:57;17.23;;;9.53;;
21843;SDS011;11084;52.482;9.108;2022-09-24T14:32:34;20.57;;;8.90;;
21843;SDS011;11084;52.482;9.108;2022-09-24T14:35:11;18.80;;;8.90;;
21843;SDS011;11084;52.482;9.108;2022-09-24T14:37:57;15.03;;;8.63;;
21843;SDS011;11084;52.482;9.108;2022-09-24T14:40:37;16.90;;;9.33;;
21843;SDS011;11084;52.482;9.108;2022-09-24T14:43:21;18.13;;;10.53;;
21843;SDS011;11084;52.482;9.108;2022-09-24T14:46:30;16.60;;;9.53;;
21843;SDS011;11084;52.482;9.108;2022-09-24T14:49:02;16.33;;;8.67;;
21843;SDS011;11084;52.482;9.108;2022-09-24T14:52:02;16.87;;;9.97;;
21843;SDS011;11084;52.482;9.108;2022-09-24T14:54:33;17.80;;;9.63;;
21843;SDS011;11084;52.482;9.108;2022-09-24T14:57:09;16.03;;;10.10;;
21843;SDS011;11084;52.482;9.108;2022-09-24T14:59:49;15.30;;;9.63;;
21843;SDS011;11084;52.482;9.108;2022-09-24T15:05:01;18.87;;;9.77;;
21843;SDS011;11084;52.482;9.108;2022-09-24T15:07:30;17.10;;;10.17;;
21843;SDS011;11084;52.482;9.108;2022-09-24T15:09:58;16.47;;;9.67;;
21843;SDS011;11084;52.482;9.108;2022-09-24T15:12:29;18.73;;;9.37;;
21843;SDS011;11084;52.482;9.108;2022-09-24T15:17:42;17.80;;;9.87;;
21843;SDS011;11084;52.482;9.108;2022-09-24T15:20:10;16.43;;;10.10;;
21843;SDS011;11084;52.482;9.108;2022-09-24T15:22:37;18.37;;;10.13;;
21843;SDS011;11084;52.482;9.108;2022-09-24T15:25:03;14.53;;;9.03;;
21843;SDS011;11084;52.482;9.108;2022-09-24T15:27:34;15.83;;;9.63;;
21843;SDS011;11084;52.482;9.108;2022-09-24T15:30:03;19.87;;;11.63;;
21843;SDS011;11084;52.482;9.108;2022-09-24T15:32:32;20.17;;;10.63;;
21843;SDS011;11084;52.482;9.108;2022-09-24T15:35:01;18.60;;;10.37;;
21843;SDS011;11084;52.482;9.108;2022-09-24T15:37:33;14.37;;;9.50;;
21843;SDS011;11084;52.482;9.108;2022-09-24T15:42:44;18.17;;;10.23;;
21843;SDS011;11084;52.482;9.108;2022-09-24T15:45:14;18.57;;;10.63;;
21843;SDS011;11084;52.482;9.108;2022-09-24T15:47:48;19.60;;;10.23;;
21843;SDS011;11084;52.482;9.108;2022-09-24T15:50:15;18.13;;;11.30;;
21843;SDS011;11084;52.482;9.108;2022-09-24T15:55:22;20.30;;;10.87;;
21843;SDS011;11084;52.482;9.108;2022-09-24T15:57:48;20.70;;;11.10;;
21843;SDS011;11084;52.482;9.108;2022-09-24T16:00:18;18.43;;;10.93;;
21843;SDS011;11084;52.482;9.108;2022-09-24T16:02:48;21.47;;;10.57;;
21843;SDS011;11084;52.482;9.108;2022-09-24T16:05:17;19.07;;;10.83;;
21843;SDS011;11084;52.482;9.108;2022-09-24T16:07:44;20.63;;;11.40;;
21843;SDS011;11084;52.482;9.108;2022-09-24T16:10:11;20.70;;;12.30;;
21843;SDS011;11084;52.482;9.108;2022-09-24T16:12:38;19.00;;;12.07;;
21843;SDS011;11084;52.482;9.108;2022-09-24T16:15:04;21.30;;;12.50;;
21843;SDS011;11084;52.482;9.108;2022-09-24T16:17:31;22.07;;;12.33;;
21843;SDS011;11084;52.482;9.108;2022-09-24T16:19:58;18.67;;;12.10;;
21843;SDS011;11084;52.482;9.108;2022-09-24T16:22:24;18.57;;;11.70;;
21843;SDS011;11084;52.482;9.108;2022-09-24T16:24:51;18.37;;;12.17;;
21843;SDS011;11084;52.482;9.108;2022-09-24T16:27:18;18.67;;;12.17;;
21843;SDS011;11084;52.482;9.108;2022-09-24T16:29:44;20.00;;;11.93;;
21843;SDS011;11084;52.482;9.108;2022-09-24T16:32:10;20.97;;;13.10;;
21843;SDS011;11084;52.482;9.108;2022-09-24T16:34:38;24.43;;;11.87;;
21843;SDS011;11084;52.482;9.108;2022-09-24T16:37:05;20.30;;;12.87;;
21843;SDS011;11084;52.482;9.108;2022-09-24T16:39:34;20.70;;;12.77;;
21843;SDS011;11084;52.482;9.108;2022-09-24T16:42:00;20.57;;;12.63;;
21843;SDS011;11084;52.482;9.108;2022-09-24T16:44:26;25.37;;;13.30;;
21843;SDS011;11084;52.482;9.108;2022-09-24T16:46:52;21.37;;;13.40;;
21843;SDS011;11084;52.482;9.108;2022-09-24T16:49:18;21.53;;;13.67;;
21843;SDS011;11084;52.482;9.108;2022-09-24T16:51:47;25.03;;;13.90;;
21843;SDS011;11084;52.482;9.108;2022-09-24T16:54:13;24.20;;;14.50;;
21843;SDS011;11084;52.482;9.108;2022-09-24T16:56:39;23.20;;;13.93;;
21843;SDS011;11084;52.482;9.108;2022-09-24T16:59:05;21.87;;;13.90;;
21843;SDS011;11084;52.482;9.108;2022-09-24T17:01:34;27.80;;;15.10;;
21843;SDS011;11084;52.482;9.108;2022-09-24T17:03:59;25.73;;;15.07;;
21843;SDS011;11084;52.482;9.108;2022-09-24T17:06:27;21.67;;;14.33;;
21843;SDS011;11084;52.482;9.108;2022-09-24T17:08:55;25.33;;;15.10;;
21843;SDS011;11084;52.482;9.108;2022-09-24T17:11:41;28.30;;;14.37;;
21843;SDS011;11084;52.482;9.108;2022-09-24T17:14:07;21.70;;;13.37;;
21843;SDS011;11084;52.482;9.108;2022-09-24T17:16:38;31.13;;;15.57;;
21843;SDS011;11084;52.482;9.108;2022-09-24T17:19:06;26.37;;;14.93;;
21843;SDS011;11084;52.482;9.108;2022-09-24T17:21:37;24.13;;;14.53;;
21843;SDS011;11084;52.482;9.108;2022-09-24T17:24:05;28.50;;;14.87;;